sensor_id;sensor_type;location;lat;lon;timestamp;P1;durP1;ratioP1;P2;durP2;ratioP2
16813;SDS011;8524;57.650;11.926;2023-04-01T00:02:12;1.70;;;1.60;;
16813;SDS011;8524;57.650;11.926;2023-04-01T00:04:40;1.40;;;1.30;;
16813;SDS011;8524;57.650;11.926;2023-04-01T00:07:08;1.57;;;1.20;;
16813;SDS011;8524;57.650;11.926;2023-04-01T00:09:35;1.23;;;1.13;;
16813;SDS011;8524;57.650;11.926;2023-04-01T00:12:04;1.60;;;1.50;;
16813;SDS011;8524;57.650;11.926;2023-04-01T00:14:31;1.30;;;1.17;;
16813;SDS011;8524;57.650;11.926;2023-04-01T00:16:58;1.40;;;1.30;;
16813;SDS011;8524;57.650;11.926;2023-04-01T00:19:25;1.60;;;1.50;;
16813;SDS011;8524;57.650;11.926;2023-04-01T00:21:52;2.10;;;1.43;;
16813;SDS011;8524;57.650;11.926;2023-04-01T00:24:19;2.17;;;1.43;;
16813;SDS011;8524;57.650;11.926;2023-04-01T00:26:46;1.93;;;1.30;;
16813;SDS011;8524;57.650;11.926;2023-04-01T00:29:15;1.60;;;1.23;;
16813;SDS011;8524;57.650;11.926;2023-04-01T00:31:42;1.30;;;1.20;;
16813;SDS011;8524;57.650;11.926;2023-04-01T00:34:09;1.73;;;1.30;;
16813;SDS011;8524;57.650;11.926;2023-04-01T00:36:36;1.73;;;1.60;;
16813;SDS011;8524;57.650;11.926;2023-04-01T00:39:03;1.40;;;1.30;;
16813;SDS011;8524;57.650;11.926;2023-04-01T00:41:30;2.03;;;1.60;;
16813;SDS011;8524;57.650;11.926;2023-04-01T00:44:13;1.60;;;1.50;;
16813;SDS011;8524;57.650;11.926;2023-04-01T00:46:44;1.50;;;1.40;;
16813;SDS011;8524;57.650;11.926;2023-04-01T00:49:11;1.43;;;1.10;;
16813;SDS011;8524;57.650;11.926;2023-04-01T00:51:39;1.37;;;1.27;;
16813;SDS011;8524;57.650;11.926;2023-04-01T00:54:08;0.97;;;0.97;;
16813;SDS011;8524;57.650;11.926;2023-04-01T00:56:36;2.40;;;1.47;;
16813;SDS011;8524;57.650;11.926;2023-04-01T00:59:06;2.40;;;1.60;;
16813;SDS011;8524;57.650;11.926;2023-04-01T01:01:40;1.70;;;1.60;;
16813;SDS011;8524;57.650;11.926;2023-04-01T01:04:07;1.40;;;1.30;;
16813;SDS011;8524;57.650;11.926;2023-04-01T01:06:47;1.27;;;1.17;;
16813;SDS011;8524;57.650;11.926;2023-04-01T01:09:23;1.10;;;1.00;;
16813;SDS011;8524;57.650;11.926;2023-04-01T01:12:01;1.50;;;1.40;;
16813;SDS011;8524;57.650;11.926;2023-04-01T01:14:36;2.37;;;1.20;;
16813;SDS011;8524;57.650;11.926;2023-04-01T01:17:13;3.70;;;1.80;;
16813;SDS011;8524;57.650;11.926;2023-04-01T01:19:49;1.43;;;1.30;;
16813;SDS011;8524;57.650;11.926;2023-04-01T01:22:36;1.97;;;1.40;;
16813;SDS011;8524;57.650;11.926;2023-04-01T01:25:22;1.20;;;1.10;;
16813;SDS011;8524;57.650;11.926;2023-04-01T01:28:00;2.43;;;1.40;;
16813;SDS011;8524;57.650;11.926;2023-04-01T01:30:43;2.80;;;1.40;;
16813;SDS011;8524;57.650;11.926;2023-04-01T01:33:17;2.23;;;1.20;;
16813;SDS011;8524;57.650;11.926;2023-04-01T01:36:01;1.37;;;1.27;;
16813;SDS011;8524;57.650;11.926;2023-04-01T01:38:31;1.50;;;1.40;;
16813;SDS011;8524;57.650;11.926;2023-04-01T01:41:01;1.50;;;1.40;;
16813;SDS011;8524;57.650;11.926;2023-04-01T01:43:32;1.27;;;1.17;;
16813;SDS011;8524;57.650;11.926;2023-04-01T01:46:03;1.70;;;1.20;;
16813;SDS011;8524;57.650;11.926;2023-04-01T01:48:34;2.00;;;1.13;;
16813;SDS011;8524;57.650;11.926;2023-04-01T01:51:03;2.00;;;1.47;;
16813;SDS011;8524;57.650;11.926;2023-04-01T01:53:32;3.00;;;1.30;;
16813;SDS011;8524;57.650;11.926;2023-04-01T01:55:59;1.80;;;1.33;;
16813;SDS011;8524;57.650;11.926;2023-04-01T01:58:27;2.50;;;1.23;;
16813;SDS011;8524;57.650;11.926;2023-04-01T02:00:58;2.50;;;1.33;;
16813;SDS011;8524;57.650;11.926;2023-04-01T02:03:30;1.97;;;1.30;;
16813;SDS011;8524;57.650;11.926;2023-04-01T02:06:01;1.97;;;1.30;;
16813;SDS011;8524;57.650;11.926;2023-04-01T02:08:34;0.90;;;0.90;;
16813;SDS011;8524;57.650;11.926;2023-04-01T02:11:04;1.37;;;1.23;;
16813;SDS011;8524;57.650;11.926;2023-04-01T02:13:34;1.60;;;1.40;;
16813;SDS011;8524;57.650;11.926;2023-04-01T02:16:08;1.30;;;1.20;;
16813;SDS011;8524;57.650;11.926;2023-04-01T02:18:39;1.40;;;1.30;;
16813;SDS011;8524;57.650;11.926;2023-04-01T02:21:10;1.10;;;1.10;;
16813;SDS011;8524;57.650;11.926;2023-04-01T02:23:38;1.87;;;1.20;;
16813;SDS011;8524;57.650;11.926;2023-04-01T02:26:06;2.60;;;1.30;;
16813;SDS011;8524;57.650;11.926;2023-04-01T02:28:34;1.57;;;1.47;;
16813;SDS011;8524;57.650;11.926;2023-04-01T02:31:04;2.43;;;1.27;;
16813;SDS011;8524;57.650;11.926;2023-04-01T02:33:33;2.20;;;1.23;;
16813;SDS011;8524;57.650;11.926;2023-04-01T02:36:00;1.30;;;1.20;;
16813;SDS011;8524;57.650;11.926;2023-04-01T02:38:29;1.43;;;1.20;;
16813;SDS011;8524;57.650;11.926;2023-04-01T02:40:57;1.30;;;1.20;;
16813;SDS011;8524;57.650;11.926;2023-04-01T02:43:25;2.57;;;1.30;;
16813;SDS011;8524;57.650;11.926;2023-04-01T02:45:52;2.07;;;1.20;;
16813;SDS011;8524;57.650;11.926;2023-04-01T02:48:19;1.43;;;1.17;;
16813;SDS011;8524;57.650;11.926;2023-04-01T02:50:46;1.33;;;1.23;;
16813;SDS011;8524;57.650;11.926;2023-04-01T02:53:14;1.53;;;1.27;;
16813;SDS011;8524;57.650;11.926;2023-04-01T02:55:43;1.13;;;1.03;;
16813;SDS011;8524;57.650;11.926;2023-04-01T02:58:10;2.03;;;1.30;;
16813;SDS011;8524;57.650;11.926;2023-04-01T03:00:38;1.03;;;0.93;;
16813;SDS011;8524;57.650;11.926;2023-04-01T03:03:05;1.10;;;1.00;;
16813;SDS011;8524;57.650;11.926;2023-04-01T03:05:32;1.80;;;1.10;;
16813;SDS011;8524;57.650;11.926;2023-04-01T03:07:59;1.70;;;1.17;;
16813;SDS011;8524;57.650;11.926;2023-04-01T03:10:26;1.43;;;1.30;;
16813;SDS011;8524;57.650;11.926;2023-04-01T03:12:55;1.33;;;1.20;;
16813;SDS011;8524;57.650;11.926;2023-04-01T03:15:22;1.67;;;1.07;;
16813;SDS011;8524;57.650;11.926;2023-04-01T03:17:49;1.20;;;1.10;;
16813;SDS011;8524;57.650;11.926;2023-04-01T03:20:16;0.90;;;0.90;;
16813;SDS011;8524;57.650;11.926;2023-04-01T03:22:43;0.97;;;0.97;;
16813;SDS011;8524;57.650;11.926;2023-04-01T03:25:10;1.30;;;1.20;;
16813;SDS011;8524;57.650;11.926;2023-04-01T03:27:41;1.40;;;1.13;;
16813;SDS011;8524;57.650;11.926;2023-04-01T03:30:10;1.27;;;1.17;;
16813;SDS011;8524;57.650;11.926;2023-04-01T03:32:37;1.33;;;1.23;;
16813;SDS011;8524;57.650;11.926;2023-04-01T03:35:05;1.10;;;1.00;;
16813;SDS011;8524;57.650;11.926;2023-04-01T03:37:34;1.20;;;1.00;;
16813;SDS011;8524;57.650;11.926;2023-04-01T03:40:01;0.90;;;0.80;;
16813;SDS011;8524;57.650;11.926;2023-04-01T03:42:29;1.20;;;1.00;;
16813;SDS011;8524;57.650;11.926;2023-04-01T03:44:57;1.03;;;0.97;;
16813;SDS011;8524;57.650;11.926;2023-04-01T03:47:25;1.57;;;1.07;;
16813;SDS011;8524;57.650;11.926;2023-04-01T03:49:52;0.90;;;0.90;;
16813;SDS011;8524;57.650;11.926;2023-04-01T03:52:20;1.00;;;0.90;;
16813;SDS011;8524;57.650;11.926;2023-04-01T03:54:47;2.20;;;1.00;;
16813;SDS011;8524;57.650;11.926;2023-04-01T03:57:14;1.10;;;1.00;;
16813;SDS011;8524;57.650;11.926;2023-04-01T03:59:41;2.27;;;1.63;;
16813;SDS011;8524;57.650;11.926;2023-04-01T04:02:08;1.30;;;1.10;;
16813;SDS011;8524;57.650;11.926;2023-04-01T04:04:37;2.73;;;1.20;;
16813;SDS011;8524;57.650;11.926;2023-04-01T04:07:04;1.30;;;1.20;;
16813;SDS011;8524;57.650;11.926;2023-04-01T04:09:32;1.13;;;1.03;;
16813;SDS011;8524;57.650;11.926;2023-04-01T04:11:59;1.23;;;0.90;;
16813;SDS011;8524;57.650;11.926;2023-04-01T04:14:27;0.70;;;0.70;;
16813;SDS011;8524;57.650;11.926;2023-04-01T04:16:54;2.13;;;1.00;;
16813;SDS011;8524;57.650;11.926;2023-04-01T04:19:21;1.27;;;1.17;;
16813;SDS011;8524;57.650;11.926;2023-04-01T04:21:50;1.10;;;1.00;;
16813;SDS011;8524;57.650;11.926;2023-04-01T04:24:17;0.97;;;0.97;;
16813;SDS011;8524;57.650;11.926;2023-04-01T04:26:44;0.83;;;0.83;;
16813;SDS011;8524;57.650;11.926;2023-04-01T04:29:11;1.20;;;1.00;;
16813;SDS011;8524;57.650;11.926;2023-04-01T04:31:38;1.20;;;1.10;;
16813;SDS011;8524;57.650;11.926;2023-04-01T04:34:05;1.27;;;0.90;;
16813;SDS011;8524;57.650;11.926;2023-04-01T04:36:32;0.90;;;0.90;;
16813;SDS011;8524;57.650;11.926;2023-04-01T04:39:01;0.93;;;0.87;;
16813;SDS011;8524;57.650;11.926;2023-04-01T04:41:28;0.80;;;0.80;;
16813;SDS011;8524;57.650;11.926;2023-04-01T04:43:55;1.37;;;1.03;;
16813;SDS011;8524;57.650;11.926;2023-04-01T04:46:23;0.83;;;0.83;;
16813;SDS011;8524;57.650;11.926;2023-04-01T04:48:51;0.90;;;0.80;;
16813;SDS011;8524;57.650;11.926;2023-04-01T04:51:18;1.00;;;0.90;;
16813;SDS011;8524;57.650;11.926;2023-04-01T04:53:47;1.37;;;1.27;;
16813;SDS011;8524;57.650;11.926;2023-04-01T04:56:18;1.10;;;0.90;;
16813;SDS011;8524;57.650;11.926;2023-04-01T04:58:46;1.53;;;1.00;;
16813;SDS011;8524;57.650;11.926;2023-04-01T05:01:14;1.20;;;1.03;;
16813;SDS011;8524;57.650;11.926;2023-04-01T05:03:42;1.10;;;1.00;;
16813;SDS011;8524;57.650;11.926;2023-04-01T05:06:11;1.17;;;1.07;;
16813;SDS011;8524;57.650;11.926;2023-04-01T05:08:39;1.30;;;1.20;;
16813;SDS011;8524;57.650;11.926;2023-04-01T05:11:09;1.10;;;1.00;;
16813;SDS011;8524;57.650;11.926;2023-04-01T05:13:39;1.40;;;0.70;;
16813;SDS011;8524;57.650;11.926;2023-04-01T05:16:08;1.50;;;1.20;;
16813;SDS011;8524;57.650;11.926;2023-04-01T05:18:35;1.40;;;1.03;;
16813;SDS011;8524;57.650;11.926;2023-04-01T05:21:02;0.97;;;0.90;;
16813;SDS011;8524;57.650;11.926;2023-04-01T05:23:30;0.90;;;0.90;;
16813;SDS011;8524;57.650;11.926;2023-04-01T05:26:02;1.00;;;0.90;;
16813;SDS011;8524;57.650;11.926;2023-04-01T05:28:30;1.33;;;0.90;;
16813;SDS011;8524;57.650;11.926;2023-04-01T05:30:59;1.27;;;1.00;;
16813;SDS011;8524;57.650;11.926;2023-04-01T05:33:27;1.47;;;1.13;;
16813;SDS011;8524;57.650;11.926;2023-04-01T05:35:54;1.00;;;0.80;;
16813;SDS011;8524;57.650;11.926;2023-04-01T05:38:22;1.87;;;0.93;;
16813;SDS011;8524;57.650;11.926;2023-04-01T05:40:49;1.47;;;1.00;;
16813;SDS011;8524;57.650;11.926;2023-04-01T05:43:17;1.13;;;0.70;;
16813;SDS011;8524;57.650;11.926;2023-04-01T05:45:44;1.33;;;0.70;;
16813;SDS011;8524;57.650;11.926;2023-04-01T05:48:16;1.43;;;1.03;;
16813;SDS011;8524;57.650;11.926;2023-04-01T05:50:43;0.77;;;0.77;;
16813;SDS011;8524;57.650;11.926;2023-04-01T05:53:10;0.70;;;0.70;;
16813;SDS011;8524;57.650;11.926;2023-04-01T05:55:37;2.00;;;0.90;;
16813;SDS011;8524;57.650;11.926;2023-04-01T05:58:04;1.20;;;0.80;;
16813;SDS011;8524;57.650;11.926;2023-04-01T06:00:31;0.80;;;0.80;;
16813;SDS011;8524;57.650;11.926;2023-04-01T06:02:58;0.80;;;0.80;;
16813;SDS011;8524;57.650;11.926;2023-04-01T06:05:28;1.37;;;0.80;;
16813;SDS011;8524;57.650;11.926;2023-04-01T06:08:00;1.60;;;1.00;;
16813;SDS011;8524;57.650;11.926;2023-04-01T06:10:38;0.90;;;0.90;;
16813;SDS011;8524;57.650;11.926;2023-04-01T06:13:17;0.57;;;0.57;;
16813;SDS011;8524;57.650;11.926;2023-04-01T06:15:58;0.77;;;0.67;;
16813;SDS011;8524;57.650;11.926;2023-04-01T06:18:42;2.73;;;1.13;;
16813;SDS011;8524;57.650;11.926;2023-04-01T06:21:35;3.53;;;1.07;;
16813;SDS011;8524;57.650;11.926;2023-04-01T06:24:18;1.30;;;1.00;;
16813;SDS011;8524;57.650;11.926;2023-04-01T06:26:59;1.53;;;1.03;;
16813;SDS011;8524;57.650;11.926;2023-04-01T06:32:40;0.97;;;0.80;;
16813;SDS011;8524;57.650;11.926;2023-04-01T06:38:38;1.20;;;1.10;;
16813;SDS011;8524;57.650;11.926;2023-04-01T06:41:24;1.03;;;0.93;;
16813;SDS011;8524;57.650;11.926;2023-04-01T06:44:08;2.97;;;1.17;;
16813;SDS011;8524;57.650;11.926;2023-04-01T06:46:44;1.00;;;0.90;;
16813;SDS011;8524;57.650;11.926;2023-04-01T06:49:21;2.00;;;1.00;;
16813;SDS011;8524;57.650;11.926;2023-04-01T06:51:59;2.03;;;0.97;;
16813;SDS011;8524;57.650;11.926;2023-04-01T06:54:34;0.93;;;0.80;;
16813;SDS011;8524;57.650;11.926;2023-04-01T06:57:05;2.60;;;1.03;;
16813;SDS011;8524;57.650;11.926;2023-04-01T06:59:45;0.90;;;0.90;;
16813;SDS011;8524;57.650;11.926;2023-04-01T07:02:18;1.03;;;0.80;;
16813;SDS011;8524;57.650;11.926;2023-04-01T07:04:51;0.70;;;0.70;;
16813;SDS011;8524;57.650;11.926;2023-04-01T07:07:21;1.27;;;0.70;;
16813;SDS011;8524;57.650;11.926;2023-04-01T07:09:57;1.10;;;0.83;;
16813;SDS011;8524;57.650;11.926;2023-04-01T07:12:31;1.67;;;0.80;;
16813;SDS011;8524;57.650;11.926;2023-04-01T07:15:04;0.83;;;0.83;;
16813;SDS011;8524;57.650;11.926;2023-04-01T07:17:41;0.83;;;0.70;;
16813;SDS011;8524;57.650;11.926;2023-04-01T07:20:11;1.37;;;0.70;;
16813;SDS011;8524;57.650;11.926;2023-04-01T07:22:42;2.20;;;0.73;;
16813;SDS011;8524;57.650;11.926;2023-04-01T07:25:13;1.00;;;0.90;;
16813;SDS011;8524;57.650;11.926;2023-04-01T07:27:42;1.40;;;0.83;;
16813;SDS011;8524;57.650;11.926;2023-04-01T07:30:13;0.93;;;0.70;;
16813;SDS011;8524;57.650;11.926;2023-04-01T07:32:42;1.97;;;0.70;;
16813;SDS011;8524;57.650;11.926;2023-04-01T07:35:16;1.07;;;0.80;;
16813;SDS011;8524;57.650;11.926;2023-04-01T07:37:56;1.33;;;0.70;;
16813;SDS011;8524;57.650;11.926;2023-04-01T07:40:37;0.53;;;0.53;;
16813;SDS011;8524;57.650;11.926;2023-04-01T07:43:22;0.93;;;0.83;;
16813;SDS011;8524;57.650;11.926;2023-04-01T07:46:04;0.97;;;0.80;;
16813;SDS011;8524;57.650;11.926;2023-04-01T07:48:38;1.30;;;0.70;;
16813;SDS011;8524;57.650;11.926;2023-04-01T07:51:13;0.93;;;0.87;;
16813;SDS011;8524;57.650;11.926;2023-04-01T07:53:44;1.23;;;0.83;;
16813;SDS011;8524;57.650;11.926;2023-04-01T07:56:18;1.03;;;0.80;;
16813;SDS011;8524;57.650;11.926;2023-04-01T07:58:53;1.47;;;0.60;;
16813;SDS011;8524;57.650;11.926;2023-04-01T08:01:30;1.83;;;1.00;;
16813;SDS011;8524;57.650;11.926;2023-04-01T08:04:10;1.23;;;0.70;;
16813;SDS011;8524;57.650;11.926;2023-04-01T08:06:52;0.80;;;0.67;;
16813;SDS011;8524;57.650;11.926;2023-04-01T08:09:31;0.90;;;0.90;;
16813;SDS011;8524;57.650;11.926;2023-04-01T08:12:10;1.83;;;1.10;;
16813;SDS011;8524;57.650;11.926;2023-04-01T08:14:52;0.90;;;0.80;;
16813;SDS011;8524;57.650;11.926;2023-04-01T08:17:28;2.50;;;1.20;;
16813;SDS011;8524;57.650;11.926;2023-04-01T08:20:04;0.80;;;0.80;;
16813;SDS011;8524;57.650;11.926;2023-04-01T08:22:41;1.57;;;0.73;;
16813;SDS011;8524;57.650;11.926;2023-04-01T08:25:10;1.07;;;0.90;;
16813;SDS011;8524;57.650;11.926;2023-04-01T08:27:45;1.87;;;0.90;;
16813;SDS011;8524;57.650;11.926;2023-04-01T08:30:16;0.80;;;0.80;;
16813;SDS011;8524;57.650;11.926;2023-04-01T08:32:46;1.73;;;0.83;;
16813;SDS011;8524;57.650;11.926;2023-04-01T08:35:19;1.60;;;0.90;;
16813;SDS011;8524;57.650;11.926;2023-04-01T08:37:54;0.87;;;0.80;;
16813;SDS011;8524;57.650;11.926;2023-04-01T08:40:37;0.60;;;0.60;;
16813;SDS011;8524;57.650;11.926;2023-04-01T08:43:42;2.47;;;0.80;;
16813;SDS011;8524;57.650;11.926;2023-04-01T08:49:47;0.90;;;0.80;;
16813;SDS011;8524;57.650;11.926;2023-04-01T08:52:27;2.00;;;0.83;;
16813;SDS011;8524;57.650;11.926;2023-04-01T08:55:09;2.30;;;0.80;;
16813;SDS011;8524;57.650;11.926;2023-04-01T08:58:25;1.90;;;0.70;;
16813;SDS011;8524;57.650;11.926;2023-04-01T09:04:32;2.63;;;1.10;;
16813;SDS011;8524;57.650;11.926;2023-04-01T09:07:19;1.10;;;1.00;;
16813;SDS011;8524;57.650;11.926;2023-04-01T09:13:17;1.90;;;1.10;;
16813;SDS011;8524;57.650;11.926;2023-04-01T09:16:03;1.23;;;0.80;;
16813;SDS011;8524;57.650;11.926;2023-04-01T09:19:03;1.33;;;0.70;;
16813;SDS011;8524;57.650;11.926;2023-04-01T09:21:57;1.40;;;1.30;;
16813;SDS011;8524;57.650;11.926;2023-04-01T09:24:41;1.40;;;1.30;;
16813;SDS011;8524;57.650;11.926;2023-04-01T09:27:19;2.57;;;1.03;;
16813;SDS011;8524;57.650;11.926;2023-04-01T09:29:59;1.83;;;0.80;;
16813;SDS011;8524;57.650;11.926;2023-04-01T09:32:56;1.70;;;0.80;;
16813;SDS011;8524;57.650;11.926;2023-04-01T09:35:45;0.83;;;0.83;;
16813;SDS011;8524;57.650;11.926;2023-04-01T09:38:22;1.17;;;0.77;;
16813;SDS011;8524;57.650;11.926;2023-04-01T09:40:56;0.70;;;0.70;;
16813;SDS011;8524;57.650;11.926;2023-04-01T09:43:25;1.30;;;0.67;;
16813;SDS011;8524;57.650;11.926;2023-04-01T09:48:50;0.97;;;0.80;;
16813;SDS011;8524;57.650;11.926;2023-04-01T09:51:53;0.60;;;0.60;;
16813;SDS011;8524;57.650;11.926;2023-04-01T09:54:40;0.70;;;0.70;;
16813;SDS011;8524;57.650;11.926;2023-04-01T09:57:32;1.20;;;0.83;;
16813;SDS011;8524;57.650;11.926;2023-04-01T10:00:36;2.57;;;0.93;;
16813;SDS011;8524;57.650;11.926;2023-04-01T10:06:22;1.10;;;0.90;;
16813;SDS011;8524;57.650;11.926;2023-04-01T10:12:38;0.67;;;0.67;;
16813;SDS011;8524;57.650;11.926;2023-04-01T10:18:32;0.60;;;0.60;;
16813;SDS011;8524;57.650;11.926;2023-04-01T10:21:39;1.00;;;0.90;;
16813;SDS011;8524;57.650;11.926;2023-04-01T10:24:29;0.70;;;0.70;;
16813;SDS011;8524;57.650;11.926;2023-04-01T10:36:25;1.07;;;0.80;;
16813;SDS011;8524;57.650;11.926;2023-04-01T10:42:09;0.90;;;0.80;;
16813;SDS011;8524;57.650;11.926;2023-04-01T10:48:40;0.87;;;0.60;;
16813;SDS011;8524;57.650;11.926;2023-04-01T10:51:46;0.67;;;0.60;;
16813;SDS011;8524;57.650;11.926;2023-04-01T10:54:36;1.10;;;0.60;;
16813;SDS011;8524;57.650;11.926;2023-04-01T10:57:15;0.50;;;0.50;;
16813;SDS011;8524;57.650;11.926;2023-04-01T11:00:07;0.67;;;0.60;;
16813;SDS011;8524;57.650;11.926;2023-04-01T11:03:02;0.60;;;0.60;;
16813;SDS011;8524;57.650;11.926;2023-04-01T11:09:34;1.93;;;0.63;;
16813;SDS011;8524;57.650;11.926;2023-04-01T11:12:35;0.80;;;0.60;;
16813;SDS011;8524;57.650;11.926;2023-04-01T11:15:47;3.17;;;0.90;;
16813;SDS011;8524;57.650;11.926;2023-04-01T11:22:00;2.30;;;0.80;;
16813;SDS011;8524;57.650;11.926;2023-04-01T11:24:54;0.70;;;0.70;;
16813;SDS011;8524;57.650;11.926;2023-04-01T11:27:42;0.60;;;0.60;;
16813;SDS011;8524;57.650;11.926;2023-04-01T11:30:49;0.90;;;0.70;;
16813;SDS011;8524;57.650;11.926;2023-04-01T11:33:25;1.33;;;0.80;;
16813;SDS011;8524;57.650;11.926;2023-04-01T11:36:01;0.43;;;0.43;;
16813;SDS011;8524;57.650;11.926;2023-04-01T11:38:51;0.43;;;0.43;;
16813;SDS011;8524;57.650;11.926;2023-04-01T11:41:31;2.03;;;0.73;;
16813;SDS011;8524;57.650;11.926;2023-04-01T11:44:14;1.47;;;0.60;;
16813;SDS011;8524;57.650;11.926;2023-04-01T11:46:51;1.53;;;0.70;;
16813;SDS011;8524;57.650;11.926;2023-04-01T11:49:33;1.70;;;0.80;;
16813;SDS011;8524;57.650;11.926;2023-04-01T11:55:18;1.00;;;0.53;;
16813;SDS011;8524;57.650;11.926;2023-04-01T11:58:06;1.80;;;0.53;;
16813;SDS011;8524;57.650;11.926;2023-04-01T12:00:57;2.40;;;0.77;;
16813;SDS011;8524;57.650;11.926;2023-04-01T12:03:51;0.50;;;0.50;;
16813;SDS011;8524;57.650;11.926;2023-04-01T12:06:32;0.77;;;0.50;;
16813;SDS011;8524;57.650;11.926;2023-04-01T12:09:09;1.07;;;0.63;;
16813;SDS011;8524;57.650;11.926;2023-04-01T12:11:48;2.03;;;0.63;;
16813;SDS011;8524;57.650;11.926;2023-04-01T12:14:25;0.57;;;0.50;;
16813;SDS011;8524;57.650;11.926;2023-04-01T12:17:02;0.77;;;0.50;;
16813;SDS011;8524;57.650;11.926;2023-04-01T12:19:38;0.60;;;0.60;;
16813;SDS011;8524;57.650;11.926;2023-04-01T12:22:14;1.53;;;0.70;;
16813;SDS011;8524;57.650;11.926;2023-04-01T12:24:54;0.57;;;0.50;;
16813;SDS011;8524;57.650;11.926;2023-04-01T12:27:40;0.40;;;0.40;;
16813;SDS011;8524;57.650;11.926;2023-04-01T12:30:19;0.60;;;0.50;;
16813;SDS011;8524;57.650;11.926;2023-04-01T12:33:02;1.00;;;0.60;;
16813;SDS011;8524;57.650;11.926;2023-04-01T12:35:43;1.57;;;0.70;;
16813;SDS011;8524;57.650;11.926;2023-04-01T12:38:24;0.60;;;0.50;;
16813;SDS011;8524;57.650;11.926;2023-04-01T12:41:08;3.50;;;0.77;;
16813;SDS011;8524;57.650;11.926;2023-04-01T12:43:51;0.93;;;0.50;;
16813;SDS011;8524;57.650;11.926;2023-04-01T12:46:47;0.87;;;0.67;;
16813;SDS011;8524;57.650;11.926;2023-04-01T12:52:44;0.50;;;0.50;;
16813;SDS011;8524;57.650;11.926;2023-04-01T12:55:35;0.70;;;0.57;;
16813;SDS011;8524;57.650;11.926;2023-04-01T12:58:22;0.60;;;0.60;;
16813;SDS011;8524;57.650;11.926;2023-04-01T13:01:23;1.30;;;0.70;;
16813;SDS011;8524;57.650;11.926;2023-04-01T13:04:04;1.57;;;0.63;;
16813;SDS011;8524;57.650;11.926;2023-04-01T13:07:07;0.93;;;0.60;;
16813;SDS011;8524;57.650;11.926;2023-04-01T13:09:57;0.90;;;0.60;;
16813;SDS011;8524;57.650;11.926;2023-04-01T13:12:39;0.80;;;0.80;;
16813;SDS011;8524;57.650;11.926;2023-04-01T13:15:36;0.70;;;0.60;;
16813;SDS011;8524;57.650;11.926;2023-04-01T13:18:11;1.20;;;0.60;;
16813;SDS011;8524;57.650;11.926;2023-04-01T13:20:49;0.77;;;0.73;;
16813;SDS011;8524;57.650;11.926;2023-04-01T13:23:25;0.57;;;0.53;;
16813;SDS011;8524;57.650;11.926;2023-04-01T13:26:03;1.37;;;0.80;;
16813;SDS011;8524;57.650;11.926;2023-04-01T13:28:40;0.50;;;0.50;;
16813;SDS011;8524;57.650;11.926;2023-04-01T13:31:19;0.87;;;0.63;;
16813;SDS011;8524;57.650;11.926;2023-04-01T13:34:01;0.73;;;0.60;;
16813;SDS011;8524;57.650;11.926;2023-04-01T13:36:49;0.70;;;0.70;;
16813;SDS011;8524;57.650;11.926;2023-04-01T13:39:34;0.93;;;0.80;;
16813;SDS011;8524;57.650;11.926;2023-04-01T13:42:21;0.60;;;0.60;;
16813;SDS011;8524;57.650;11.926;2023-04-01T13:44:54;1.60;;;0.70;;
16813;SDS011;8524;57.650;11.926;2023-04-01T13:50:32;1.43;;;0.80;;
16813;SDS011;8524;57.650;11.926;2023-04-01T13:53:17;1.07;;;0.77;;
16813;SDS011;8524;57.650;11.926;2023-04-01T13:55:57;0.60;;;0.60;;
16813;SDS011;8524;57.650;11.926;2023-04-01T14:01:31;0.70;;;0.70;;
16813;SDS011;8524;57.650;11.926;2023-04-01T14:07:01;0.53;;;0.53;;
16813;SDS011;8524;57.650;11.926;2023-04-01T14:12:31;3.93;;;0.77;;
16813;SDS011;8524;57.650;11.926;2023-04-01T14:15:09;1.30;;;0.57;;
16813;SDS011;8524;57.650;11.926;2023-04-01T14:17:59;2.83;;;0.70;;
16813;SDS011;8524;57.650;11.926;2023-04-01T14:20:44;1.67;;;0.93;;
16813;SDS011;8524;57.650;11.926;2023-04-01T14:26:22;1.40;;;0.70;;
16813;SDS011;8524;57.650;11.926;2023-04-01T14:29:12;0.50;;;0.50;;
16813;SDS011;8524;57.650;11.926;2023-04-01T14:31:48;1.27;;;0.70;;
16813;SDS011;8524;57.650;11.926;2023-04-01T14:34:29;1.03;;;0.50;;
16813;SDS011;8524;57.650;11.926;2023-04-01T14:37:14;0.67;;;0.50;;
16813;SDS011;8524;57.650;11.926;2023-04-01T14:43:01;0.50;;;0.50;;
16813;SDS011;8524;57.650;11.926;2023-04-01T14:45:49;0.60;;;0.60;;
16813;SDS011;8524;57.650;11.926;2023-04-01T14:48:35;0.50;;;0.50;;
16813;SDS011;8524;57.650;11.926;2023-04-01T14:51:08;1.07;;;0.53;;
16813;SDS011;8524;57.650;11.926;2023-04-01T14:53:43;0.90;;;0.50;;
16813;SDS011;8524;57.650;11.926;2023-04-01T14:56:36;0.50;;;0.43;;
16813;SDS011;8524;57.650;11.926;2023-04-01T14:59:07;1.80;;;0.50;;
16813;SDS011;8524;57.650;11.926;2023-04-01T15:01:38;1.80;;;0.63;;
16813;SDS011;8524;57.650;11.926;2023-04-01T15:04:23;0.53;;;0.53;;
16813;SDS011;8524;57.650;11.926;2023-04-01T15:07:17;1.37;;;0.70;;
16813;SDS011;8524;57.650;11.926;2023-04-01T15:10:12;1.03;;;0.57;;
16813;SDS011;8524;57.650;11.926;2023-04-01T15:12:51;0.63;;;0.50;;
16813;SDS011;8524;57.650;11.926;2023-04-01T15:15:27;0.50;;;0.50;;
16813;SDS011;8524;57.650;11.926;2023-04-01T15:18:07;0.60;;;0.60;;
16813;SDS011;8524;57.650;11.926;2023-04-01T15:20:48;1.90;;;0.90;;
16813;SDS011;8524;57.650;11.926;2023-04-01T15:23:34;0.50;;;0.50;;
16813;SDS011;8524;57.650;11.926;2023-04-01T15:29:22;0.50;;;0.50;;
16813;SDS011;8524;57.650;11.926;2023-04-01T15:32:04;1.03;;;0.50;;
16813;SDS011;8524;57.650;11.926;2023-04-01T15:34:43;0.60;;;0.50;;
16813;SDS011;8524;57.650;11.926;2023-04-01T15:37:20;0.40;;;0.40;;
16813;SDS011;8524;57.650;11.926;2023-04-01T15:39:57;1.87;;;0.60;;
16813;SDS011;8524;57.650;11.926;2023-04-01T15:42:39;0.50;;;0.50;;
16813;SDS011;8524;57.650;11.926;2023-04-01T15:45:15;0.80;;;0.67;;
16813;SDS011;8524;57.650;11.926;2023-04-01T15:47:53;0.53;;;0.53;;
16813;SDS011;8524;57.650;11.926;2023-04-01T15:56:22;0.73;;;0.60;;
16813;SDS011;8524;57.650;11.926;2023-04-01T15:59:07;0.60;;;0.60;;
16813;SDS011;8524;57.650;11.926;2023-04-01T16:01:44;0.50;;;0.50;;
16813;SDS011;8524;57.650;11.926;2023-04-01T16:07:10;0.97;;;0.83;;
16813;SDS011;8524;57.650;11.926;2023-04-01T16:09:58;0.63;;;0.63;;
16813;SDS011;8524;57.650;11.926;2023-04-01T16:12:37;1.67;;;0.70;;
16813;SDS011;8524;57.650;11.926;2023-04-01T16:15:17;0.60;;;0.60;;
16813;SDS011;8524;57.650;11.926;2023-04-01T16:18:05;0.70;;;0.70;;
16813;SDS011;8524;57.650;11.926;2023-04-01T16:20:54;0.60;;;0.60;;
16813;SDS011;8524;57.650;11.926;2023-04-01T16:23:25;1.63;;;0.67;;
16813;SDS011;8524;57.650;11.926;2023-04-01T16:25:59;1.03;;;0.50;;
16813;SDS011;8524;57.650;11.926;2023-04-01T16:28:32;0.63;;;0.63;;
16813;SDS011;8524;57.650;11.926;2023-04-01T16:31:06;0.60;;;0.60;;
16813;SDS011;8524;57.650;11.926;2023-04-01T16:33:40;0.87;;;0.60;;
16813;SDS011;8524;57.650;11.926;2023-04-01T16:36:19;0.50;;;0.50;;
16813;SDS011;8524;57.650;11.926;2023-04-01T16:42:06;0.83;;;0.50;;
16813;SDS011;8524;57.650;11.926;2023-04-01T16:44:44;0.83;;;0.70;;
16813;SDS011;8524;57.650;11.926;2023-04-01T16:47:18;0.87;;;0.60;;
16813;SDS011;8524;57.650;11.926;2023-04-01T16:49:50;0.63;;;0.60;;
16813;SDS011;8524;57.650;11.926;2023-04-01T16:52:34;0.97;;;0.83;;
16813;SDS011;8524;57.650;11.926;2023-04-01T16:55:13;0.80;;;0.80;;
16813;SDS011;8524;57.650;11.926;2023-04-01T16:57:45;0.50;;;0.50;;
16813;SDS011;8524;57.650;11.926;2023-04-01T17:00:17;0.70;;;0.70;;
16813;SDS011;8524;57.650;11.926;2023-04-01T17:02:57;2.10;;;0.70;;
16813;SDS011;8524;57.650;11.926;2023-04-01T17:05:42;0.60;;;0.60;;
16813;SDS011;8524;57.650;11.926;2023-04-01T17:08:18;1.60;;;0.70;;
16813;SDS011;8524;57.650;11.926;2023-04-01T17:10:56;0.70;;;0.70;;
16813;SDS011;8524;57.650;11.926;2023-04-01T17:13:39;0.60;;;0.60;;
16813;SDS011;8524;57.650;11.926;2023-04-01T17:16:17;1.53;;;0.70;;